ADDS METAR Data INFO
IDs: Format: Raw Decoded Include TAF

Data at: 2255 UTC 22 Jun 2018

KBVO 222253Z AUTO 00000KT 10SM CLR 28/18 A2977 RMK AO2 SLP071 T02780178
KBVO 222153Z AUTO 02006KT 10SM CLR 28/18 A2978 RMK AO2 SLP075 T02780178
KBVO 222053Z AUTO VRB03KT 10SM CLR 27/18 A2981 RMK AO2 SLP086 T02720183 58026
KBVO 221953Z AUTO 00000KT 10SM CLR 28/18 A2985 RMK AO2 SLP097 T02780183
KBVO 221853Z AUTO 27005KT 10SM CLR 27/18 A2987 RMK AO2 SLP106 T02670183
KBVO 221753Z AUTO VRB03KT 10SM CLR 26/18 A2989 RMK AO2 SLP113 T02560178 10256 20183 58007
KBVO 221721Z AUTO 27006KT 10SM SCT025 SCT030 25/18 A2990 RMK AO2 T02500178
KBVO 221653Z AUTO VRB04KT 10SM BKN025 BKN029 24/18 A2991 RMK AO2 SLP118 T02440183
KBVO 221650Z AUTO 00000KT 10SM BKN025 BKN029 24/18 A2991 RMK AO2
KBVO 221640Z AUTO VRB03KT 10SM SCT021 SCT029 25/18 A2991 RMK AO2 T02500183
KBVO 221553Z AUTO VRB04KT 10SM FEW019 OVC027 23/18 A2991 RMK AO2 SLP119 T02330183
KBVO 221453Z AUTO VRB03KT 10SM OVC017 22/18 A2991 RMK AO2 SLP119 T02170178 51006
KBVO 221353Z AUTO 00000KT 10SM OVC015 20/18 A2990 RMK AO2 SLP116 T02000178
KBVO 221317Z AUTO VRB03KT 10SM SCT011 BKN018 19/17 A2990 RMK AO2 T01940172
KBVO 221253Z AUTO 00000KT 10SM OVC012 19/17 A2991 RMK AO2 SLP116 T01890167
KBVO 221234Z AUTO 00000KT 10SM BKN013 19/17 A2990 RMK AO2 T01890167
KBVO 221153Z AUTO 00000KT 10SM CLR 18/16 A2989 RMK AO2 SLP112 T01780161 10200 20150 53016
KBVO 221053Z AUTO 00000KT 10SM CLR 16/15 A2989 RMK AO2 SLP110 T01610150
KBVO 220953Z AUTO 00000KT 10SM CLR 16/14 A2985 RMK AO2 SLP097 T01560144
KBVO 220853Z AUTO 00000KT 10SM CLR 16/15 A2984 RMK AO2 SLP095 T01610150 56007
KBVO 220753Z AUTO 00000KT 10SM CLR 18/16 A2985 RMK AO2 SLP098 T01780156
KBVO 220653Z AUTO 00000KT 10SM CLR 17/16 A2986 RMK AO2 SLP099 T01720156
KBVO 220553Z AUTO 00000KT 10SM CLR 19/16 A2987 RMK AO2 SLP103 T01940156 10300 20194 403220194 51007
KBVO 220453Z AUTO 00000KT 10SM CLR 21/16 A2986 RMK AO2 SLP100 T02060156
KBVO 220353Z AUTO 10SM CLR 23/16 A2986 RMK AO2 SLP100 T02280156
KBVO 220253Z AUTO VRB03KT 10SM CLR 23/16 A2985 RMK AO2 SLP096 T02330156 53017
KBVO 220153Z AUTO 00000KT 10SM CLR 23/16 A2982 RMK AO2 SLP086 T02330161
KBVO 220053Z AUTO 00000KT 10SM CLR 28/15 A2979 RMK AO2 SLP079 T02780150
KBVO 212353Z AUTO VRB04KT 10SM CLR 31/14 A2979 RMK AO2 SLP079 T03060139 10322 20289 56011
KBVO 212253Z AUTO VRB06KT 10SM CLR 31/13 A2980 RMK AO2 SLP080 T03110133
KBVO 212153Z AUTO VRB06KT 10SM CLR 32/15 A2982 RMK AO2 SLP085 T03170150
KBVO 212053Z AUTO 28007KT 240V310 10SM FEW075 31/14 A2983 RMK AO2 SLP089 T03110144 56020
KBVO 211953Z AUTO 28009G14KT 10SM CLR 31/14 A2985 RMK AO2 SLP096 T03110144
KBVO 211853Z AUTO 10SM FEW065 30/16 A2986 RMK AO2 SLP101 T03000156
KBVO 211753Z AUTO VRB04KT 10SM CLR 29/16 A2989 RMK AO2 SLP110 T02940161 10294 20194 58017
KBVO 211653Z AUTO VRB03KT 10SM CLR 28/15 A2992 RMK AO2 SLP121 T02780150
KBVO 211553Z AUTO VRB03KT 10SM CLR 27/16 A2993 RMK AO2 SLP124 T02670161
KBVO 211453Z AUTO 10SM CLR 24/16 A2994 RMK AO2 SLP129 T02440161 50003
KBVO 211353Z AUTO VRB05KT 10SM CLR 23/16 A2995 RMK AO2 SLP130 T02280156
KBVO 211253Z AUTO 00000KT 10SM CLR 21/16 A2994 RMK AO2 SLP128 T02110161
KBVO 211153Z AUTO 00000KT 10SM BKN090 19/16 A2993 RMK AO2 SLP125 T01940161 10233 20194 51019